Time;durP1;ratioP1;P1;durP2;ratioP2;P2;SDS_P1;SDS_P2;PMS_P1;PMS_P2;Temp;Humidity;BMP_temperature;BMP_pressure;BME280_temperature;BME280_humidity;BME280_pressure;Samples;Min_cycle;Max_cycle;Signal;HPM_P1;HPM_P2
2023/01/09 00:01:09;;;;;;;7.97;1.60;;;6.60;72.40;;;;;;5014771;28;20125;-30
2023/01/09 00:03:35;;;;;;;5.20;1.15;;;6.70;99.90;;;;;;5014031;28;20484;-31
2023/01/09 00:06:00;;;;;;;9.30;1.75;;;6.70;99.90;;;;;;5012991;28;20045;-29
2023/01/09 00:08:26;;;;;;;6.15;1.40;;;6.70;1.00;;;;;;5013969;28;20045;-31
2023/01/09 00:10:52;;;;;;;6.25;1.48;;;6.60;1.00;;;;;;4996780;28;20099;-31
2023/01/09 00:13:18;;;;;;;7.03;1.77;;;6.60;1.00;;;;;;5014372;28;20050;-30
2023/01/09 00:15:43;;;;;;;5.55;1.73;;;6.60;98.60;;;;;;5013837;28;20042;-32
2023/01/09 00:18:09;;;;;;;6.50;1.60;;;6.50;99.90;;;;;;5013811;28;20189;-32
2023/01/09 00:20:35;;;;;;;5.47;1.75;;;6.40;99.90;;;;;;5012596;28;20050;-31
2023/01/09 00:23:01;;;;;;;7.38;1.65;;;6.30;99.90;;;;;;5013695;28;20049;-33
2023/01/09 00:25:27;;;;;;;3.97;1.58;;;6.30;99.90;;;;;;5014714;28;20176;-33
2023/01/09 00:27:53;;;;;;;6.72;1.42;;;6.30;99.90;;;;;;5017809;28;20064;-32
2023/01/09 00:30:19;;;;;;;3.42;1.23;;;6.30;99.90;;;;;;5016996;28;20049;-33
2023/01/09 00:32:45;;;;;;;5.70;1.30;;;6.30;99.90;;;;;;5018092;28;20045;-37
2023/01/09 00:35:14;;;;;;;5.07;0.98;;;6.20;99.90;;;;;;5017713;28;20071;-35
2023/01/09 00:37:40;;;;;;;4.15;0.90;;;6.20;99.90;;;;;;5017622;28;20045;-34
2023/01/09 00:40:06;;;;;;;3.33;1.48;;;6.20;99.90;;;;;;5017662;28;20054;-34
2023/01/09 00:42:35;;;;;;;3.83;1.33;;;6.30;99.90;;;;;;5000520;28;20041;-34
2023/01/09 00:45:04;;;;;;;2.38;0.68;;;6.20;99.90;;;;;;5018047;28;20042;-33
2023/01/09 00:47:42;;;;;;;2.13;0.47;;;6.20;99.90;;;;;;5017425;28;20054;-32
2023/01/09 00:50:14;;;;;;;3.90;0.80;;;6.20;99.90;;;;;;5017504;28;20488;-34
2023/01/09 00:52:40;;;;;;;3.00;0.40;;;6.30;99.90;;;;;;5000018;28;20061;-34
2023/01/09 00:55:07;;;;;;;1.48;0.30;;;6.30;99.90;;;;;;5017323;28;20045;-33
2023/01/09 00:57:32;;;;;;;0.90;0.30;;;6.30;99.90;;;;;;5000531;28;20443;-33
2023/01/09 00:59:59;;;;;;;3.28;0.40;;;6.30;99.90;;;;;;5017233;28;20050;-33
2023/01/09 01:02:25;;;;;;;3.17;0.50;;;6.30;99.90;;;;;;5017114;28;20096;-32
2023/01/09 01:07:37;;;;;;;1.13;0.30;;;6.30;1.00;;;;;;5017140;28;20404;-32
2023/01/09 01:10:05;;;;;;;1.02;0.30;;;6.20;1.00;;;;;;5017576;28;20082;-32
2023/01/09 01:12:31;;;;;;;3.70;0.75;;;6.20;1.00;;;;;;5016989;28;20041;-33
2023/01/09 01:14:57;;;;;;;2.05;0.50;;;6.20;1.00;;;;;;5016931;28;20137;-32
2023/01/09 01:17:23;;;;;;;0.90;0.30;;;6.20;1.00;;;;;;5016896;28;20045;-32
2023/01/09 01:19:49;;;;;;;1.85;0.35;;;6.20;1.00;;;;;;5016878;28;20061;-32
2023/01/09 01:22:15;;;;;;;1.27;0.30;;;6.20;1.00;;;;;;4999019;28;20053;-32
2023/01/09 01:24:40;;;;;;;1.38;0.30;;;6.20;1.00;;;;;;4999323;28;20053;-31
2023/01/09 01:27:06;;;;;;;2.42;0.60;;;6.20;1.00;;;;;;5016731;28;20050;-31
2023/01/09 01:29:32;;;;;;;3.20;0.52;;;6.30;1.00;;;;;;5016738;28;20046;-32
2023/01/09 01:31:58;;;;;;;1.92;0.45;;;6.30;1.00;;;;;;5016102;28;20050;-31
2023/01/09 01:34:24;;;;;;;2.35;0.50;;;6.30;99.90;;;;;;5016530;28;20169;-31
2023/01/09 01:36:50;;;;;;;3.75;0.50;;;6.30;99.90;;;;;;5016922;28;20049;-31
2023/01/09 01:39:16;;;;;;;1.95;0.63;;;6.30;1.00;;;;;;5017039;28;20147;-31
2023/01/09 01:41:41;;;;;;;3.42;0.60;;;6.20;1.00;;;;;;5016329;28;20056;-31
2023/01/09 01:44:48;;;;;;;3.60;0.80;;;6.20;1.00;;;;;;5016377;28;20053;-30
2023/01/09 01:47:16;;;;;;;5.13;0.90;;;6.20;1.00;;;;;;5016691;28;20050;-31
2023/01/09 01:49:42;;;;;;;3.72;1.10;;;6.20;1.00;;;;;;4998919;28;20058;-30
2023/01/09 01:52:08;;;;;;;4.18;1.17;;;6.20;1.00;;;;;;5016236;28;20077;-30
2023/01/09 01:54:33;;;;;;;6.97;1.17;;;6.20;6.60;;;;;;4998789;28;20577;-30
2023/01/09 01:57:02;;;;;;;4.65;1.48;;;6.30;98.10;;;;;;5016233;28;20042;-30
2023/01/09 01:59:39;;;;;;;6.05;1.70;;;6.30;83.30;;;;;;5016088;28;20058;-30
2023/01/09 02:02:05;;;;;;;7.18;1.52;;;6.30;99.90;;;;;;5016908;28;20045;-31
2023/01/09 02:04:35;;;;;;;5.82;1.48;;;6.30;99.90;;;;;;4998708;28;20057;-31
2023/01/09 02:07:04;;;;;;;7.70;1.70;;;6.30;99.90;;;;;;5015970;28;20050;-32
2023/01/09 02:09:30;;;;;;;8.05;2.20;;;6.20;99.90;;;;;;5015918;28;20058;-32
2023/01/09 02:11:57;;;;;;;3.47;1.23;;;6.20;99.90;;;;;;5015882;28;20076;-31
2023/01/09 02:14:26;;;;;;;4.70;1.85;;;6.10;99.90;;;;;;4998284;28;20116;-31
2023/01/09 02:17:35;;;;;;;7.30;2.03;;;6.20;99.90;;;;;;5016293;28;20124;-32
2023/01/09 02:20:20;;;;;;;9.23;2.35;;;6.10;99.90;;;;;;4986841;28;20148;-31
2023/01/09 02:22:55;;;;;;;8.18;3.10;;;6.10;99.90;;;;;;5015996;28;20358;-31
2023/01/09 02:25:53;;;;;;;9.00;1.98;;;6.00;99.90;;;;;;5015591;28;20049;-32
2023/01/09 02:28:27;;;;;;;3.83;1.55;;;6.00;99.90;;;;;;5002601;28;20058;-31
2023/01/09 02:31:23;;;;;;;6.25;2.45;;;5.90;99.90;;;;;;5015352;28;20045;-32
2023/01/09 02:33:57;;;;;;;9.40;2.40;;;5.80;99.90;;;;;;5015544;28;20058;-32
2023/01/09 02:36:23;;;;;;;5.75;2.17;;;5.70;99.90;;;;;;5015510;28;20046;-32
2023/01/09 02:39:07;;;;;;;9.38;2.45;;;5.70;99.90;;;;;;5015393;28;20104;-32
2023/01/09 02:41:42;;;;;;;10.70;2.42;;;5.60;99.90;;;;;;5015327;28;20038;-33
2023/01/09 02:44:28;;;;;;;9.73;2.63;;;5.60;99.90;;;;;;5015616;28;20058;-33
2023/01/09 02:47:22;;;;;;;6.55;2.17;;;5.50;99.90;;;;;;5016106;28;20054;-32
2023/01/09 02:49:50;;;;;;;;;;;5.40;99.90;;;;;;5015056;28;20100;-31
2023/01/09 02:52:52;;;;;;;11.15;2.90;;;5.50;99.90;;;;;;5015161;28;19944;-32
2023/01/09 02:55:49;;;;;;;8.30;2.63;;;5.50;99.90;;;;;;4997899;28;20050;-31
2023/01/09 02:58:49;;;;;;;10.07;2.78;;;5.50;99.90;;;;;;5015338;28;20046;-32
2023/01/09 03:01:50;;;;;;;4.47;2.33;;;5.40;99.90;;;;;;4997933;28;20054;-32
2023/01/09 03:04:40;;;;;;;7.68;2.97;;;5.40;99.90;;;;;;4997355;28;20046;-32
2023/01/09 03:07:28;;;;;;;9.82;2.30;;;5.30;99.90;;;;;;5015203;28;20057;-31
2023/01/09 03:09:59;;;;;;;7.57;2.72;;;5.20;99.90;;;;;;5015145;28;20045;-31
2023/01/09 03:12:28;;;;;;;7.65;2.22;;;5.20;99.90;;;;;;5015393;28;20125;-32
2023/01/09 03:14:58;;;;;;;6.60;2.40;;;5.20;99.90;;;;;;5014718;28;20124;-32
2023/01/09 03:17:35;;;;;;;10.90;2.53;;;5.10;99.90;;;;;;5015255;28;20049;-31
2023/01/09 03:20:05;;;;;;;11.25;2.75;;;5.10;99.90;;;;;;5014939;28;20046;-31
2023/01/09 03:22:31;;;;;;;8.32;3.00;;;5.00;99.90;;;;;;5014762;28;20038;-31
2023/01/09 03:24:57;;;;;;;7.82;2.75;;;5.00;99.90;;;;;;5014450;28;20053;-31
2023/01/09 03:27:23;;;;;;;9.90;2.90;;;4.90;99.90;;;;;;5014807;28;20078;-31
2023/01/09 03:29:50;;;;;;;11.90;2.90;;;4.90;99.90;;;;;;5014518;28;20492;-31
2023/01/09 03:32:15;;;;;;;6.97;2.67;;;4.80;99.90;;;;;;5013292;28;20069;-32
2023/01/09 03:34:41;;;;;;;9.90;3.92;;;4.80;99.90;;;;;;5014363;28;20045;-32
2023/01/09 03:37:07;;;;;;;11.80;2.72;;;4.80;99.90;;;;;;5014890;28;20056;-31
2023/01/09 03:39:32;;;;;;;6.90;2.67;;;4.80;99.90;;;;;;4996795;28;20042;-31
2023/01/09 03:41:58;;;;;;;13.65;3.95;;;4.80;99.90;;;;;;4996756;28;20038;-32
2023/01/09 03:44:24;;;;;;;9.93;3.38;;;4.80;99.90;;;;;;5014220;28;20392;-32
2023/01/09 03:46:50;;;;;;;12.00;3.70;;;4.70;99.90;;;;;;4996677;28;20081;-31
2023/01/09 03:49:16;;;;;;;9.68;3.50;;;4.70;99.90;;;;;;5014198;28;20052;-31
2023/01/09 03:51:42;;;;;;;9.23;3.80;;;4.70;99.90;;;;;;5014087;28;20049;-31
2023/01/09 03:54:08;;;;;;;9.75;3.38;;;4.60;99.90;;;;;;4996856;28;20050;-31
2023/01/09 03:56:34;;;;;;;9.07;3.47;;;4.70;99.90;;;;;;5014088;28;20505;-31
2023/01/09 03:59:00;;;;;;;8.15;4.20;;;4.60;99.90;;;;;;5014792;28;20479;-31
2023/01/09 04:01:25;;;;;;;13.57;4.20;;;4.70;99.90;;;;;;5013120;28;20188;-31
2023/01/09 04:03:51;;;;;;;9.32;3.95;;;4.70;99.90;;;;;;5013998;28;20046;-31
2023/01/09 04:06:17;;;;;;;11.32;3.88;;;4.80;99.90;;;;;;5013953;28;20085;-31
2023/01/09 04:08:42;;;;;;;8.07;4.43;;;4.70;99.90;;;;;;5013899;28;20046;-32
2023/01/09 04:11:08;;;;;;;13.20;3.92;;;4.70;99.90;;;;;;5013956;28;20478;-31
2023/01/09 04:13:34;;;;;;;8.20;4.32;;;4.60;99.90;;;;;;5014449;28;20046;-31
2023/01/09 04:16:00;;;;;;;9.43;4.68;;;4.60;99.90;;;;;;5013933;28;20439;-31
2023/01/09 04:18:25;;;;;;;8.98;4.50;;;4.60;99.90;;;;;;5014474;28;20046;-32
2023/01/09 04:20:51;;;;;;;10.80;4.30;;;4.60;99.90;;;;;;4996249;28;20388;-31
2023/01/09 04:23:17;;;;;;;11.25;4.60;;;4.50;99.90;;;;;;5014197;28;20054;-31
2023/01/09 04:25:43;;;;;;;13.77;5.15;;;4.50;99.90;;;;;;5013749;28;20069;-32
2023/01/09 04:28:08;;;;;;;13.07;4.80;;;4.50;99.90;;;;;;4996287;28;20046;-31
2023/01/09 04:30:34;;;;;;;11.38;4.22;;;4.40;99.90;;;;;;5014275;28;20491;-31
2023/01/09 04:33:00;;;;;;;12.40;4.55;;;4.40;99.90;;;;;;5013214;28;20057;-31
2023/01/09 04:35:25;;;;;;;13.10;5.55;;;4.50;99.90;;;;;;5013687;28;20062;-31
2023/01/09 04:37:51;;;;;;;8.65;5.43;;;4.40;99.90;;;;;;5014160;28;20042;-31
2023/01/09 04:40:17;;;;;;;11.25;5.30;;;4.40;99.90;;;;;;5014471;28;20046;-31
2023/01/09 04:42:43;;;;;;;18.10;5.60;;;4.40;99.90;;;;;;5013800;28;20396;-31
2023/01/09 04:45:10;;;;;;;13.68;6.53;;;4.30;99.90;;;;;;5013588;28;20056;-31
2023/01/09 04:47:36;;;;;;;14.07;5.60;;;4.30;99.90;;;;;;5014101;28;20057;-32
2023/01/09 04:50:03;;;;;;;14.65;7.07;;;4.20;99.90;;;;;;5013848;28;20050;-31
2023/01/09 04:52:29;;;;;;;18.02;6.72;;;4.20;99.90;;;;;;5013525;28;20046;-31
2023/01/09 04:54:54;;;;;;;14.45;6.57;;;4.20;99.90;;;;;;4996134;28;20400;-31
2023/01/09 04:57:21;;;;;;;13.73;7.55;;;4.10;99.90;;;;;;5013755;28;20045;-32
2023/01/09 04:59:46;;;;;;;15.57;7.22;;;4.10;99.90;;;;;;5014005;28;20050;-31
2023/01/09 05:02:12;;;;;;;15.73;6.97;;;4.00;99.90;;;;;;5013907;28;20116;-31
2023/01/09 05:04:38;;;;;;;21.73;7.35;;;4.00;99.90;;;;;;5013428;28;20063;-32
2023/01/09 05:07:03;;;;;;;19.13;9.05;;;3.90;99.90;;;;;;4995955;28;20535;-31
2023/01/09 05:09:29;;;;;;;18.30;8.63;;;4.00;99.90;;;;;;4996036;28;20240;-32
2023/01/09 05:11:55;;;;;;;18.40;8.52;;;4.00;99.90;;;;;;5015194;28;20041;-31
2023/01/09 05:14:21;;;;;;;20.08;9.55;;;3.90;99.90;;;;;;5017246;28;20373;-31
2023/01/09 05:16:47;;;;;;;23.48;10.60;;;4.00;99.90;;;;;;5017003;28;20054;-32
2023/01/09 05:19:12;;;;;;;16.90;8.55;;;4.00;99.90;;;;;;5017124;28;20057;-30
2023/01/09 05:21:38;;;;;;;17.08;8.73;;;4.00;99.90;;;;;;5017602;28;20075;-32
2023/01/09 05:24:04;;;;;;;19.30;9.90;;;4.00;99.90;;;;;;4999196;28;20045;-31
2023/01/09 05:26:30;;;;;;;18.05;9.35;;;4.00;99.90;;;;;;4999424;28;20089;-31
2023/01/09 05:28:56;;;;;;;19.80;10.95;;;4.20;99.90;;;;;;5016709;28;20046;-32
2023/01/09 05:31:23;;;;;;;20.20;12.15;;;4.10;99.90;;;;;;5016424;28;20062;-31
2023/01/09 05:33:49;;;;;;;24.98;12.10;;;4.10;99.90;;;;;;4999300;28;20104;-31
2023/01/09 05:36:15;;;;;;;20.10;12.57;;;4.20;99.90;;;;;;5016579;28;20057;-31
2023/01/09 05:38:41;;;;;;;31.13;13.65;;;4.30;99.90;;;;;;5016537;28;20050;-32
2023/01/09 05:41:07;;;;;;;26.02;13.35;;;4.40;99.90;;;;;;5016410;28;20096;-31
2023/01/09 05:43:33;;;;;;;24.25;14.00;;;4.50;99.90;;;;;;5016984;28;20374;-31
2023/01/09 05:45:59;;;;;;;26.02;13.20;;;4.60;99.90;;;;;;5016373;28;20054;-32
2023/01/09 05:48:24;;;;;;;26.17;13.90;;;4.60;99.90;;;;;;4998824;28;20115;-31
2023/01/09 05:50:51;;;;;;;23.67;13.75;;;4.70;99.90;;;;;;5016140;28;20092;-31
2023/01/09 05:53:16;;;;;;;25.10;14.45;;;4.70;99.90;;;;;;4999627;28;20420;-31
2023/01/09 05:55:42;;;;;;;21.63;13.52;;;4.80;99.90;;;;;;5016072;28;20042;-31
2023/01/09 05:58:08;;;;;;;25.60;15.88;;;4.80;99.90;;;;;;5016049;28;20187;-31
2023/01/09 06:00:33;;;;;;;25.38;13.90;;;4.70;99.90;;;;;;4998632;28;20084;-31
2023/01/09 06:02:59;;;;;;;25.25;15.95;;;4.80;99.90;;;;;;5015869;28;20034;-31
2023/01/09 06:05:25;;;;;;;28.77;18.08;;;4.70;99.90;;;;;;5015868;28;20046;-31
2023/01/09 06:07:50;;;;;;;35.60;19.23;;;4.80;99.90;;;;;;5016387;28;20053;-32
2023/01/09 06:10:16;;;;;;;29.80;18.75;;;4.90;99.90;;;;;;5015881;28;20045;-31
2023/01/09 06:12:47;;;;;;;29.70;17.88;;;4.90;99.90;;;;;;5016442;28;20048;-31
2023/01/09 06:15:14;;;;;;;28.50;18.92;;;5.00;99.90;;;;;;5016195;28;20132;-31
2023/01/09 06:17:40;;;;;;;31.48;20.85;;;5.00;99.90;;;;;;4998513;28;20129;-31
2023/01/09 06:20:07;;;;;;;28.08;19.15;;;5.10;99.90;;;;;;4999049;28;20404;-31
2023/01/09 06:22:32;;;;;;;28.77;20.48;;;5.20;99.90;;;;;;5014702;28;20109;-31
2023/01/09 06:24:58;;;;;;;31.20;19.50;;;5.20;99.90;;;;;;5015318;28;20049;-31
2023/01/09 06:27:24;;;;;;;26.35;19.27;;;5.20;99.90;;;;;;5016242;28;20137;-31
2023/01/09 06:29:50;;;;;;;26.75;17.88;;;5.20;99.90;;;;;;4998220;28;20092;-31
2023/01/09 06:32:15;;;;;;;27.95;19.05;;;5.30;99.90;;;;;;5015762;28;20388;-31
2023/01/09 06:34:41;;;;;;;28.83;19.42;;;5.30;99.90;;;;;;5015483;28;20116;-31
2023/01/09 06:37:07;;;;;;;32.50;20.02;;;5.30;99.90;;;;;;5015409;28;20052;-31
2023/01/09 06:39:33;;;;;;;27.67;19.23;;;5.30;99.90;;;;;;5015408;28;20046;-32
2023/01/09 06:41:58;;;;;;;26.70;19.63;;;5.30;99.90;;;;;;5015028;28;20129;-32
2023/01/09 06:44:24;;;;;;;29.88;18.45;;;5.30;99.90;;;;;;5015314;28;20042;-31
2023/01/09 06:46:50;;;;;;;27.23;17.92;;;5.30;99.90;;;;;;5015574;28;20111;-31
2023/01/09 06:49:16;;;;;;;27.05;18.42;;;5.40;99.90;;;;;;5015761;28;20046;-32
2023/01/09 06:51:42;;;;;;;30.00;18.73;;;5.40;99.90;;;;;;5015144;28;20085;-31
2023/01/09 06:54:08;;;;;;;28.63;19.50;;;5.40;99.90;;;;;;5015467;28;20092;-32
2023/01/09 06:56:33;;;;;;;28.45;19.80;;;5.40;99.90;;;;;;5015076;28;20195;-31
2023/01/09 06:59:00;;;;;;;28.92;18.73;;;5.30;99.90;;;;;;5015036;28;20046;-31
2023/01/09 07:01:26;;;;;;;25.55;17.38;;;5.40;99.90;;;;;;5015178;28;20046;-32
2023/01/09 07:03:52;;;;;;;27.60;18.77;;;5.40;99.90;;;;;;5014657;28;20115;-31
2023/01/09 07:06:18;;;;;;;28.05;18.45;;;5.40;99.90;;;;;;4997626;28;20057;-31
2023/01/09 07:08:44;;;;;;;21.13;16.23;;;5.40;99.90;;;;;;5014873;28;20054;-31
2023/01/09 07:11:10;;;;;;;27.20;17.25;;;5.30;99.90;;;;;;5014780;28;20121;-32
2023/01/09 07:13:37;;;;;;;27.08;18.02;;;5.40;99.90;;;;;;5015322;28;20046;-31
2023/01/09 07:16:04;;;;;;;26.15;17.13;;;5.30;99.90;;;;;;5014731;28;20088;-31
2023/01/09 07:18:30;;;;;;;22.98;16.60;;;5.30;99.90;;;;;;5014683;28;20137;-32
2023/01/09 07:20:56;;;;;;;26.30;19.70;;;5.40;99.90;;;;;;5014598;28;20057;-31
2023/01/09 07:23:21;;;;;;;27.52;17.17;;;5.30;99.90;;;;;;4997014;28;20042;-31
2023/01/09 07:25:49;;;;;;;26.20;17.15;;;5.30;99.90;;;;;;5014851;28;20092;-32
2023/01/09 07:28:15;;;;;;;27.30;14.98;;;5.30;99.90;;;;;;4997291;28;20112;-31
2023/01/09 07:30:41;;;;;;;25.38;15.80;;;5.20;99.90;;;;;;5014512;28;20057;-31
2023/01/09 07:33:06;;;;;;;30.90;17.48;;;5.30;99.90;;;;;;5014265;28;20089;-31
2023/01/09 07:35:32;;;;;;;24.73;14.85;;;5.30;99.90;;;;;;5014261;28;20081;-30
2023/01/09 07:37:58;;;;;;;23.80;15.05;;;5.30;99.90;;;;;;4997691;28;20054;-31
2023/01/09 07:40:24;;;;;;;23.27;14.70;;;5.30;99.90;;;;;;5014288;28;20038;-31
2023/01/09 07:42:52;;;;;;;21.83;13.95;;;5.30;99.90;;;;;;4996657;28;20046;-31
2023/01/09 07:45:18;;;;;;;21.80;14.32;;;5.30;99.90;;;;;;5014250;28;20046;-31
2023/01/09 07:47:43;;;;;;;24.85;16.08;;;5.30;99.90;;;;;;4980524;28;20049;-31
2023/01/09 07:50:10;;;;;;;23.15;13.73;;;5.30;99.90;;;;;;5014174;28;20049;-32
2023/01/09 07:52:35;;;;;;;20.33;15.07;;;5.20;99.90;;;;;;5014141;28;20042;-31
2023/01/09 07:55:01;;;;;;;21.05;14.60;;;5.20;99.90;;;;;;5014126;28;20137;-31
2023/01/09 07:57:28;;;;;;;22.30;14.38;;;5.20;99.90;;;;;;5014377;28;20124;-31
2023/01/09 07:59:54;;;;;;;20.92;13.48;;;5.10;99.90;;;;;;5014339;28;20104;-31
2023/01/09 08:02:20;;;;;;;21.02;14.27;;;5.10;99.90;;;;;;5014514;28;20435;-31
2023/01/09 08:04:45;;;;;;;23.25;14.95;;;5.10;99.90;;;;;;4980872;28;20044;-31
2023/01/09 08:07:11;;;;;;;20.85;15.63;;;5.00;99.90;;;;;;5013959;28;20081;-31
2023/01/09 08:09:37;;;;;;;27.77;15.98;;;5.00;99.90;;;;;;5013935;28;20049;-31
2023/01/09 08:12:03;;;;;;;19.90;14.35;;;5.00;99.90;;;;;;5013888;28;20046;-30
2023/01/09 08:14:30;;;;;;;22.83;14.85;;;5.00;99.90;;;;;;4980185;28;20045;-31
2023/01/09 08:16:55;;;;;;;18.63;13.60;;;4.90;99.90;;;;;;5014428;28;20053;-30
2023/01/09 08:19:21;;;;;;;20.35;12.80;;;4.90;99.90;;;;;;5013869;28;20042;-32
2023/01/09 08:21:47;;;;;;;17.40;12.65;;;4.90;99.90;;;;;;5013772;28;20042;-32
2023/01/09 08:24:12;;;;;;;25.23;14.25;;;4.90;99.90;;;;;;5013986;28;20136;-30
2023/01/09 08:26:39;;;;;;;20.10;12.27;;;4.90;99.90;;;;;;4996288;28;20045;-30
2023/01/09 08:29:05;;;;;;;19.27;12.15;;;4.90;99.90;;;;;;4997180;28;20046;-31
2023/01/09 08:31:31;;;;;;;19.25;12.27;;;5.00;99.90;;;;;;4998010;28;20062;-32
2023/01/09 08:33:56;;;;;;;19.83;11.98;;;5.00;99.90;;;;;;5013671;28;20045;-31
2023/01/09 08:36:22;;;;;;;18.25;11.68;;;5.00;99.90;;;;;;5013956;28;20046;-31
2023/01/09 08:38:48;;;;;;;19.70;11.68;;;5.00;99.90;;;;;;5013669;28;20049;-30
2023/01/09 08:49:26;;;;;;;17.75;10.88;;;5.10;99.90;;;;;;5018106;28;20088;-31
2023/01/09 08:51:52;;;;;;;17.85;9.00;;;5.10;99.90;;;;;;5017797;28;20049;-31
2023/01/09 08:54:18;;;;;;;13.50;9.15;;;5.10;99.90;;;;;;5017090;28;20064;-31
2023/01/09 08:56:43;;;;;;;18.20;9.80;;;5.20;99.90;;;;;;5017916;28;20050;-31
2023/01/09 08:59:10;;;;;;;13.88;9.02;;;5.20;99.90;;;;;;5017303;28;20046;-31
2023/01/09 09:01:35;;;;;;;14.68;9.35;;;5.20;99.90;;;;;;5016237;28;20046;-30
2023/01/09 09:04:01;;;;;;;16.45;8.98;;;5.20;99.90;;;;;;5017019;28;20077;-32
2023/01/09 09:06:27;;;;;;;15.20;9.55;;;5.20;99.90;;;;;;5016208;28;20046;-30
2023/01/09 09:08:53;;;;;;;13.77;8.25;;;5.30;99.90;;;;;;5017884;28;20055;-30
2023/01/09 09:11:19;;;;;;;13.35;7.55;;;5.30;99.90;;;;;;5017039;28;20480;-31
2023/01/09 09:13:44;;;;;;;16.90;7.57;;;5.30;99.90;;;;;;5017533;28;20085;-31
2023/01/09 09:16:10;;;;;;;11.45;8.18;;;5.40;99.90;;;;;;5017275;28;20048;-31
2023/01/09 09:18:36;;;;;;;12.25;7.18;;;5.40;99.90;;;;;;5016960;28;20476;-31
2023/01/09 09:21:01;;;;;;;13.27;7.30;;;5.50;99.90;;;;;;5017336;28;20074;-31
2023/01/09 09:23:27;;;;;;;16.83;7.82;;;5.50;99.90;;;;;;5016791;28;20132;-31
2023/01/09 09:25:53;;;;;;;15.40;7.32;;;5.50;99.90;;;;;;5016849;28;20045;-31
2023/01/09 09:28:18;;;;;;;13.18;7.85;;;5.50;99.90;;;;;;5016783;28;20138;-31
2023/01/09 09:30:44;;;;;;;17.27;8.50;;;5.60;99.90;;;;;;5016681;28;20132;-30
2023/01/09 09:33:10;;;;;;;15.93;8.48;;;5.60;99.90;;;;;;5016221;28;20060;-31
2023/01/09 09:35:36;;;;;;;14.35;7.80;;;5.70;99.90;;;;;;4999618;28;20536;-31
2023/01/09 09:38:03;;;;;;;13.68;7.43;;;5.70;99.90;;;;;;5016579;28;20504;-32
2023/01/09 09:40:53;;;;;;;19.63;7.72;;;5.80;99.90;;;;;;5017032;28;20049;-31
2023/01/09 09:46:41;;;;;;;12.00;6.65;;;5.80;99.90;;;;;;5017005;28;20447;-31
2023/01/09 09:49:26;;;;;;;16.27;5.80;;;5.80;99.90;;;;;;5016278;28;20410;-31
2023/01/09 09:52:07;;;;;;;12.77;6.35;;;5.90;99.90;;;;;;4998813;28;20112;-31
2023/01/09 09:54:41;;;;;;;14.98;6.57;;;5.90;99.90;;;;;;4999059;28;20050;-30
2023/01/09 09:57:15;;;;;;;12.48;5.95;;;5.90;99.90;;;;;;5016244;28;20492;-30
2023/01/09 09:59:42;;;;;;;16.80;6.68;;;5.90;99.90;;;;;;5016742;28;20053;-31
2023/01/09 10:02:49;;;;;;;8.98;5.65;;;6.00;99.90;;;;;;4998654;28;20148;-30
2023/01/09 10:05:25;;;;;;;13.43;6.60;;;6.00;99.90;;;;;;4952294;28;20061;-30
2023/01/09 10:07:52;;;;;;;11.95;5.93;;;6.00;99.90;;;;;;4999610;28;20133;-30
2023/01/09 10:10:42;;;;;;;12.95;5.65;;;6.00;99.90;;;;;;5016032;28;20411;-31
2023/01/09 10:16:23;;;;;;;13.45;5.85;;;6.10;99.90;;;;;;5015918;28;20062;-31
2023/01/09 10:19:10;;;;;;;;;;;6.10;99.90;;;;;;5016235;28;20523;-30
2023/01/09 10:22:07;;;;;;;10.70;5.00;;;6.10;99.90;;;;;;5016028;28;20348;-31
2023/01/09 10:24:56;;;;;;;9.27;5.13;;;6.10;99.90;;;;;;5015652;28;20506;-30
2023/01/09 10:27:27;;;;;;;9.55;4.95;;;6.10;99.90;;;;;;5008132;28;20054;-30
2023/01/09 10:30:12;;;;;;;13.68;5.72;;;6.20;99.90;;;;;;5015648;28;20443;-30
2023/01/09 10:32:48;;;;;;;9.38;5.57;;;6.20;99.90;;;;;;5009110;28;20065;-31
2023/01/09 10:35:22;;;;;;;9.60;5.13;;;6.20;99.90;;;;;;5016336;28;20092;-30
2023/01/09 10:37:52;;;;;;;12.30;5.65;;;6.20;99.90;;;;;;5016108;28;20065;-31
2023/01/09 10:40:42;;;;;;;11.95;5.20;;;6.30;99.90;;;;;;5015830;28;20073;-31
2023/01/09 10:43:29;;;;;;;9.23;5.38;;;6.30;99.90;;;;;;5014904;28;20439;-30
2023/01/09 10:46:00;;;;;;;10.32;4.97;;;6.30;99.90;;;;;;5015420;28;20046;-30
2023/01/09 10:48:32;;;;;;;14.55;6.05;;;6.20;99.90;;;;;;5015342;28;20060;-31
2023/01/09 10:50:58;;;;;;;11.47;4.70;;;6.30;99.90;;;;;;5015618;28;20458;-30
2023/01/09 10:53:42;;;;;;;8.48;4.95;;;6.30;99.90;;;;;;5015143;28;20320;-31
2023/01/09 10:56:12;;;;;;;;;;;6.30;99.90;;;;;;5014920;28;20492;-30
2023/01/09 10:58:37;;;;;;;13.13;6.30;;;6.30;99.90;;;;;;5015393;28;19947;-31
2023/01/09 11:01:04;;;;;;;15.82;9.05;;;6.30;99.90;;;;;;5014622;28;20050;-30
2023/01/09 11:03:30;;;;;;;20.73;11.77;;;6.30;99.90;;;;;;5015316;28;20108;-30
2023/01/09 11:05:58;;;;;;;20.05;7.78;;;6.30;99.90;;;;;;5014943;28;20053;-30
2023/01/09 11:08:40;;;;;;;10.90;6.05;;;6.30;99.90;;;;;;5015437;28;20492;-30
2023/01/09 11:11:07;;;;;;;13.00;4.95;;;6.30;99.90;;;;;;5014718;28;20107;-31
2023/01/09 11:13:35;;;;;;;11.20;5.45;;;6.40;99.90;;;;;;5014829;28;20049;-30
2023/01/09 11:16:04;;;;;;;11.80;6.47;;;6.40;99.90;;;;;;5014802;28;20042;-30
2023/01/09 11:18:30;;;;;;;10.85;4.63;;;6.40;99.90;;;;;;5014955;28;20400;-30
2023/01/09 11:21:31;;;;;;;10.23;4.72;;;6.40;99.90;;;;;;5014637;28;20049;-31
2023/01/09 11:24:25;;;;;;;14.00;5.30;;;6.50;99.90;;;;;;5015107;28;20131;-31
2023/01/09 11:26:51;;;;;;;;;;;6.50;99.90;;;;;;5015900;28;20054;-30
2023/01/09 11:29:19;;;;;;;9.50;4.70;;;6.50;99.90;;;;;;5014619;28;20040;-30
2023/01/09 11:32:00;;;;;;;11.85;4.85;;;6.50;99.90;;;;;;5014208;28;20050;-30
2023/01/09 11:34:35;;;;;;;17.58;5.63;;;6.50;99.90;;;;;;4980998;28;20053;-31
2023/01/09 11:37:09;;;;;;;12.25;4.82;;;6.50;99.90;;;;;;5015026;28;20054;-32
2023/01/09 11:39:40;;;;;;;8.60;5.05;;;6.50;99.90;;;;;;5014463;28;20054;-30
2023/01/09 11:42:18;;;;;;;9.88;4.70;;;6.50;99.90;;;;;;5014351;28;20042;-30
2023/01/09 11:44:45;;;;;;;9.77;4.70;;;6.50;99.90;;;;;;5014335;28;20061;-30
2023/01/09 11:47:34;;;;;;;9.75;4.35;;;6.50;99.90;;;;;;5014226;28;20050;-30
2023/01/09 11:50:20;;;;;;;7.63;5.20;;;6.50;99.90;;;;;;5014504;28;20050;-31
2023/01/09 11:53:05;;;;;;;10.02;5.25;;;6.50;99.90;;;;;;4997406;28;20388;-30
2023/01/09 11:55:31;;;;;;;15.98;5.60;;;6.50;99.90;;;;;;5014045;28;20057;-31
2023/01/09 11:57:57;;;;;;;10.50;5.88;;;6.50;99.90;;;;;;5014078;28;20392;-31
2023/01/09 12:00:26;;;;;;;10.15;5.30;;;6.50;99.90;;;;;;5014888;28;20054;-31
2023/01/09 12:03:30;;;;;;;11.45;5.80;;;6.50;99.90;;;;;;4996514;28;20459;-30
2023/01/09 12:05:56;;;;;;;;;;;6.50;99.90;;;;;;5014493;28;20053;-30
2023/01/09 12:08:59;;;;;;;11.05;6.25;;;6.40;99.90;;;;;;5014512;28;19927;-31
2023/01/09 12:11:49;;;;;;;9.38;5.80;;;6.50;99.90;;;;;;5004935;28;20054;-30
2023/01/09 12:14:41;;;;;;;8.98;5.35;;;6.60;99.90;;;;;;5013965;28;20045;-30
2023/01/09 12:17:25;;;;;;;10.88;6.05;;;6.60;99.90;;;;;;4981026;28;20133;-30
2023/01/09 12:20:20;;;;;;;9.95;5.75;;;6.70;99.90;;;;;;4997238;28;20049;-31
2023/01/09 12:23:21;;;;;;;9.07;6.18;;;6.70;99.90;;;;;;5013824;28;20038;-30
2023/01/09 12:25:55;;;;;;;9.80;6.22;;;6.70;99.90;;;;;;5014167;28;20058;-31
2023/01/09 12:28:59;;;;;;;11.20;6.75;;;6.70;99.90;;;;;;5013857;28;20081;-31
2023/01/09 12:31:40;;;;;;;;;;;6.70;99.90;;;;;;4981225;28;20420;-30
2023/01/09 12:34:22;;;;;;;11.30;6.00;;;6.70;99.90;;;;;;4996334;28;19927;-30
2023/01/09 12:37:26;;;;;;;9.95;6.32;;;6.60;99.90;;;;;;5014561;28;20057;-30
2023/01/09 12:40:07;;;;;;;15.05;7.97;;;6.60;99.90;;;;;;5013922;28;20053;-30
2023/01/09 12:42:35;;;;;;;14.00;7.75;;;6.60;99.90;;;;;;4996415;28;20049;-31
2023/01/09 12:45:04;;;;;;;12.77;7.22;;;6.60;99.90;;;;;;5014424;28;20049;-30
2023/01/09 12:47:43;;;;;;;13.95;8.07;;;6.60;99.90;;;;;;5013566;28;20504;-29
2023/01/09 12:50:20;;;;;;;16.55;8.77;;;6.60;99.90;;;;;;5013601;28;20045;-31
2023/01/09 12:53:00;;;;;;;18.67;8.60;;;6.60;99.90;;;;;;5013909;28;20042;-30
2023/01/09 12:55:29;;;;;;;14.38;9.63;;;6.60;99.90;;;;;;5013577;28;20117;-30
2023/01/09 12:57:57;;;;;;;13.10;8.32;;;6.60;99.90;;;;;;5013526;28;20101;-29
2023/01/09 13:00:29;;;;;;;12.63;8.27;;;6.70;99.90;;;;;;5013468;28;20085;-30
2023/01/09 13:03:26;;;;;;;13.35;8.55;;;6.70;99.90;;;;;;4979668;28;20400;-30
2023/01/09 13:05:53;;;;;;;14.20;9.90;;;6.70;99.90;;;;;;4996703;28;20050;-30
2023/01/09 13:08:25;;;;;;;13.55;9.32;;;6.70;99.90;;;;;;5013405;28;20504;-30
2023/01/09 13:10:56;;;;;;;14.88;9.45;;;6.80;99.90;;;;;;5013380;28;20049;-30
2023/01/09 13:13:57;;;;;;;15.32;10.50;;;6.80;99.90;;;;;;5013705;28;20049;-30
2023/01/09 13:16:32;;;;;;;18.88;10.05;;;6.80;99.90;;;;;;4991761;28;20061;-30
2023/01/09 13:19:17;;;;;;;16.90;8.85;;;6.80;99.90;;;;;;4996363;28;20103;-30
2023/01/09 13:21:43;;;;;;;18.08;8.98;;;6.80;99.90;;;;;;5014057;28;20425;-30
2023/01/09 13:24:26;;;;;;;18.98;9.15;;;6.90;99.90;;;;;;5013217;28;20057;-30
2023/01/09 13:26:54;;;;;;;;;;;6.90;99.90;;;;;;5013939;28;20054;-30